createdAt,value
2022-12-08T00:01:50.347Z,8.07
2022-12-08T00:05:10.906Z,7.85
2022-12-08T00:08:32.085Z,6.63
2022-12-08T00:11:34.229Z,6.23
2022-12-08T00:14:39.683Z,6.28
2022-12-08T00:17:41.539Z,6.47
2022-12-08T00:20:43.202Z,6.00
2022-12-08T00:23:44.879Z,6.20
2022-12-08T00:26:47.638Z,6.60
2022-12-08T00:29:49.194Z,6.03
2022-12-08T00:32:50.844Z,6.28
2022-12-08T00:35:52.552Z,6.72
2022-12-08T00:38:54.768Z,5.40
2022-12-08T00:42:15.307Z,6.80
2022-12-08T00:45:17.277Z,6.65
2022-12-08T00:48:19.028Z,5.72
2022-12-08T00:51:21.389Z,7.00
2022-12-08T00:54:24.337Z,6.60
2022-12-08T00:57:26.017Z,6.68
2022-12-08T01:00:27.837Z,6.28
2022-12-08T01:03:30.535Z,6.25
2022-12-08T01:06:32.721Z,7.03
2022-12-08T01:09:34.665Z,6.95
2022-12-08T01:12:36.421Z,7.53
2022-12-08T01:15:38.347Z,6.95
2022-12-08T01:18:40.076Z,6.35
2022-12-08T01:21:42.913Z,7.57
2022-12-08T01:24:44.481Z,7.28
2022-12-08T01:27:46.094Z,6.80
2022-12-08T01:30:47.740Z,6.30
2022-12-08T01:33:51.254Z,6.00
2022-12-08T01:36:53.085Z,6.93
2022-12-08T01:39:54.962Z,6.65
2022-12-08T01:42:56.797Z,6.53
2022-12-08T01:45:58.705Z,7.03
2022-12-08T01:49:08.689Z,6.03
2022-12-08T01:52:37.385Z,6.78
2022-12-08T01:55:59.346Z,5.47
2022-12-08T01:59:01.300Z,6.22
2022-12-08T02:02:03.715Z,6.07
2022-12-08T02:05:07.076Z,6.03
2022-12-08T02:08:12.696Z,6.32
2022-12-08T02:11:14.463Z,6.60
2022-12-08T02:14:16.332Z,6.35
2022-12-08T02:17:34.974Z,7.55
2022-12-08T02:20:56.934Z,6.75
2022-12-08T02:24:15.048Z,6.80
2022-12-08T02:27:38.821Z,6.75
2022-12-08T02:31:18.427Z,6.80
2022-12-08T02:34:47.914Z,6.18
2022-12-08T02:37:58.335Z,7.50
2022-12-08T02:41:05.489Z,6.05
2022-12-08T02:44:07.103Z,6.35
2022-12-08T02:47:14.001Z,7.13
2022-12-08T02:50:15.921Z,6.22
2022-12-08T02:53:17.639Z,6.35
2022-12-08T02:56:41.067Z,6.80
2022-12-08T02:59:57.957Z,6.30
2022-12-08T03:03:19.582Z,6.38
2022-12-08T03:06:48.359Z,5.95
2022-12-08T03:10:11.258Z,6.13
2022-12-08T03:13:28.323Z,6.22
2022-12-08T03:16:32.230Z,5.88
2022-12-08T03:19:38.906Z,5.45
2022-12-08T03:22:41.987Z,6.50
2022-12-08T03:25:50.869Z,5.60
2022-12-08T03:28:52.827Z,6.43
2022-12-08T03:31:58.242Z,6.18
2022-12-08T03:35:04.959Z,6.30
2022-12-08T03:38:10.722Z,6.05
2022-12-08T03:41:21.813Z,6.05
2022-12-08T03:47:25.134Z,5.82
2022-12-08T03:50:27.299Z,6.32
2022-12-08T03:53:29.027Z,5.78
2022-12-08T03:56:33.597Z,6.05
2022-12-08T03:59:35.139Z,5.35
2022-12-08T04:02:37.088Z,6.60
2022-12-08T04:05:39.128Z,6.45
2022-12-08T04:08:40.977Z,6.13
2022-12-08T04:11:42.645Z,6.38
2022-12-08T04:14:44.196Z,6.25
2022-12-08T04:17:46.009Z,6.60
2022-12-08T04:20:48.021Z,6.30
2022-12-08T04:23:50.022Z,5.88
2022-12-08T04:26:51.739Z,6.85
2022-12-08T04:29:53.459Z,6.82
2022-12-08T04:32:55.153Z,6.22
2022-12-08T04:35:56.752Z,6.00
2022-12-08T04:38:58.453Z,5.97
2022-12-08T04:42:00.038Z,6.22
2022-12-08T04:45:01.720Z,6.45
2022-12-08T04:48:03.470Z,5.68
2022-12-08T04:51:06.353Z,6.40
2022-12-08T04:54:08.194Z,6.10
2022-12-08T04:57:10.059Z,6.20
2022-12-08T05:00:12.566Z,5.55
2022-12-08T05:03:14.977Z,5.70
2022-12-08T05:06:16.847Z,5.55
2022-12-08T05:09:18.507Z,5.55
2022-12-08T05:12:20.200Z,5.93
2022-12-08T05:15:22.053Z,5.50
2022-12-08T05:18:23.841Z,5.57
2022-12-08T05:21:25.684Z,6.82
2022-12-08T05:24:27.259Z,6.00
2022-12-08T05:27:29.141Z,6.35
2022-12-08T05:30:30.930Z,6.47
2022-12-08T05:33:32.667Z,7.40
2022-12-08T05:36:34.450Z,7.53
2022-12-08T05:39:36.247Z,7.53
2022-12-08T05:42:38.077Z,7.88
2022-12-08T05:45:39.924Z,7.40
2022-12-08T05:48:41.876Z,7.63
2022-12-08T05:51:43.869Z,8.32
2022-12-08T05:54:45.848Z,8.82
2022-12-08T05:57:47.617Z,9.15
2022-12-08T06:00:50.612Z,9.05
2022-12-08T06:03:52.845Z,8.68
2022-12-08T06:06:54.582Z,8.90
2022-12-08T06:09:56.506Z,7.88
2022-12-08T06:12:58.449Z,8.30
2022-12-08T06:16:05.657Z,7.68
2022-12-08T06:19:07.712Z,7.80
2022-12-08T06:22:09.554Z,7.82
2022-12-08T06:25:11.413Z,7.68
2022-12-08T06:28:13.370Z,6.75
2022-12-08T06:31:21.198Z,6.30
2022-12-08T06:34:23.131Z,6.00
2022-12-08T06:37:25.175Z,6.50
2022-12-08T06:40:26.951Z,6.95
2022-12-08T06:43:28.685Z,6.28
2022-12-08T06:46:30.466Z,6.40
2022-12-08T06:49:32.135Z,5.72
2022-12-08T06:52:37.696Z,6.15
2022-12-08T06:55:59.838Z,5.45
2022-12-08T06:59:01.653Z,6.03
2022-12-08T07:02:04.898Z,6.47
2022-12-08T07:05:07.110Z,5.60
2022-12-08T07:08:11.751Z,6.13
2022-12-08T07:11:18.229Z,6.28
2022-12-08T07:14:25.060Z,5.88
2022-12-08T07:17:27.002Z,6.45
2022-12-08T07:20:28.921Z,6.13
2022-12-08T07:23:30.786Z,7.07
2022-12-08T07:26:32.881Z,6.20
2022-12-08T07:29:34.807Z,6.78
2022-12-08T07:32:38.290Z,6.93
2022-12-08T07:35:42.807Z,7.45
2022-12-08T07:38:47.891Z,7.88
2022-12-08T07:41:50.217Z,7.40
2022-12-08T07:44:52.332Z,8.25
2022-12-08T07:47:54.211Z,8.45
2022-12-08T07:51:02.058Z,8.70
2022-12-08T07:54:04.131Z,8.75
2022-12-08T07:57:06.596Z,8.63
2022-12-08T08:00:09.334Z,9.38
2022-12-08T08:03:14.052Z,9.10
2022-12-08T08:06:16.127Z,8.85
2022-12-08T08:09:18.131Z,8.27
2022-12-08T08:12:31.226Z,9.40
2022-12-08T08:15:34.530Z,8.23
2022-12-08T08:18:37.906Z,9.93
2022-12-08T08:21:47.197Z,8.82
2022-12-08T08:24:49.082Z,9.18
2022-12-08T08:27:51.158Z,9.02
2022-12-08T08:30:53.540Z,8.70
2022-12-08T08:34:05.886Z,8.40
2022-12-08T08:37:08.150Z,6.95
2022-12-08T08:40:10.692Z,7.85
2022-12-08T08:43:34.326Z,8.38
2022-12-08T08:46:38.693Z,8.02
2022-12-08T08:49:41.227Z,8.10
2022-12-08T08:52:44.502Z,7.38
2022-12-08T08:55:46.413Z,8.02
2022-12-08T08:58:52.845Z,8.63
2022-12-08T09:01:55.872Z,7.72
2022-12-08T09:04:57.910Z,8.63
2022-12-08T09:08:00.218Z,8.60
2022-12-08T09:11:02.214Z,8.80
2022-12-08T09:14:04.552Z,8.20
2022-12-08T09:17:07.318Z,8.80
2022-12-08T09:20:09.583Z,8.38
2022-12-08T09:23:11.647Z,8.20
2022-12-08T09:26:13.697Z,7.95
2022-12-08T09:29:17.825Z,7.55
2022-12-08T09:32:20.018Z,7.45
2022-12-08T09:35:22.032Z,5.88
2022-12-08T09:38:24.023Z,6.60
2022-12-08T09:41:48.278Z,6.15
2022-12-08T09:44:59.983Z,5.93
2022-12-08T09:48:15.849Z,6.05
2022-12-08T09:51:17.825Z,5.65
2022-12-08T09:54:30.659Z,5.75
2022-12-08T09:57:32.359Z,6.15
2022-12-08T10:00:34.436Z,6.30
2022-12-08T10:03:36.165Z,5.75
2022-12-08T10:07:02.571Z,5.82
2022-12-08T10:10:22.920Z,6.30
2022-12-08T10:13:52.587Z,5.90
2022-12-08T10:17:01.137Z,5.15
2022-12-08T10:20:16.769Z,5.90
2022-12-08T10:23:36.637Z,5.00
2022-12-08T10:26:38.482Z,4.82
2022-12-08T10:29:41.132Z,4.97
2022-12-08T10:32:46.959Z,4.97
2022-12-08T10:35:51.884Z,4.63
2022-12-08T10:38:53.702Z,4.30
2022-12-08T10:42:17.291Z,4.38
2022-12-08T10:45:24.857Z,3.92
2022-12-08T10:48:31.484Z,3.47
2022-12-08T10:51:33.469Z,3.20
2022-12-08T10:54:38.277Z,3.40
2022-12-08T10:57:40.107Z,2.60
2022-12-08T11:00:41.984Z,2.90
2022-12-08T11:03:59.913Z,2.42
2022-12-08T11:07:03.049Z,1.77
2022-12-08T11:10:05.835Z,2.20
2022-12-08T11:13:27.452Z,1.88
2022-12-08T11:16:29.391Z,1.40
2022-12-08T11:19:31.347Z,1.50
2022-12-08T11:22:42.539Z,1.75
2022-12-08T11:25:44.650Z,1.55
2022-12-08T11:28:47.633Z,1.60
2022-12-08T11:31:55.228Z,1.50
2022-12-08T11:35:06.714Z,2.10
2022-12-08T11:38:22.503Z,2.25
2022-12-08T11:41:30.467Z,2.13
2022-12-08T11:44:58.885Z,2.47
2022-12-08T11:48:19.281Z,2.40
2022-12-08T11:52:00.172Z,2.75
2022-12-08T11:55:25.105Z,2.60
2022-12-08T11:58:29.816Z,2.47
2022-12-08T12:01:31.841Z,3.05
2022-12-08T12:04:49.530Z,2.75
2022-12-08T12:08:18.279Z,2.70
2022-12-08T12:12:00.818Z,2.45
2022-12-08T12:15:30.118Z,2.80
2022-12-08T12:18:41.327Z,2.80
2022-12-08T12:21:46.783Z,2.85
2022-12-08T12:24:51.278Z,2.72
2022-12-08T12:27:57.841Z,3.05
2022-12-08T12:31:16.330Z,3.15
2022-12-08T12:34:30.730Z,2.58
2022-12-08T12:37:42.110Z,2.90
2022-12-08T12:40:44.644Z,3.08
2022-12-08T12:44:12.195Z,3.25
2022-12-08T12:47:35.388Z,3.60
2022-12-08T12:50:44.800Z,3.63
2022-12-08T12:53:49.871Z,3.70
2022-12-08T12:56:51.783Z,4.20
2022-12-08T12:59:55.891Z,4.40
2022-12-08T13:02:59.262Z,5.03
2022-12-08T13:06:01.700Z,4.30
2022-12-08T13:09:04.428Z,4.55
2022-12-08T13:12:22.692Z,5.20
2022-12-08T13:15:24.565Z,4.78
2022-12-08T13:18:34.054Z,4.93
2022-12-08T13:21:39.903Z,5.07
2022-12-08T13:24:44.033Z,5.90
2022-12-08T13:27:54.180Z,5.18
2022-12-08T13:30:57.453Z,5.07
2022-12-08T13:33:59.896Z,4.85
2022-12-08T13:37:01.548Z,5.13
2022-12-08T13:40:16.324Z,5.45
2022-12-08T13:43:45.047Z,4.38
2022-12-08T13:47:31.708Z,4.53
2022-12-08T13:57:49.079Z,4.63
2022-12-08T14:01:15.167Z,4.93
2022-12-08T14:07:43.650Z,4.47
2022-12-08T14:10:48.386Z,4.88
2022-12-08T14:13:51.410Z,4.97
2022-12-08T14:16:56.301Z,4.63
2022-12-08T14:20:06.729Z,5.22
2022-12-08T14:23:08.599Z,4.45
2022-12-08T14:26:11.059Z,5.15
2022-12-08T14:29:41.557Z,4.97
2022-12-08T14:32:46.419Z,4.65
2022-12-08T14:35:53.820Z,5.18
2022-12-08T14:38:56.754Z,4.82
2022-12-08T14:42:00.388Z,4.95
2022-12-08T14:45:09.488Z,5.45
2022-12-08T14:48:23.250Z,4.43
2022-12-08T14:51:32.332Z,4.60
2022-12-08T14:54:34.228Z,4.82
2022-12-08T14:57:36.279Z,4.78
2022-12-08T15:00:46.167Z,4.78
2022-12-08T15:03:51.383Z,4.57
2022-12-08T15:06:58.081Z,5.03
2022-12-08T15:10:27.359Z,4.88
2022-12-08T15:13:29.229Z,5.05
2022-12-08T15:16:37.589Z,4.78
2022-12-08T15:19:40.378Z,4.15
2022-12-08T15:22:43.323Z,4.53
2022-12-08T15:25:45.066Z,5.10
2022-12-08T15:28:46.673Z,5.38
2022-12-08T15:31:48.936Z,4.72
2022-12-08T15:34:51.091Z,4.82
2022-12-08T15:37:52.961Z,4.85
2022-12-08T15:40:55.929Z,5.13
2022-12-08T15:43:57.802Z,5.18
2022-12-08T15:47:00.609Z,5.47
2022-12-08T15:50:04.845Z,5.47
2022-12-08T15:53:10.398Z,6.50
2022-12-08T15:56:29.352Z,5.55
2022-12-08T15:59:31.385Z,5.60
2022-12-08T16:02:56.403Z,5.90
2022-12-08T16:06:31.378Z,6.13
2022-12-08T16:09:39.954Z,6.95
2022-12-08T16:16:28.220Z,6.57
2022-12-08T16:19:29.963Z,6.93
2022-12-08T16:26:18.844Z,7.43
2022-12-08T16:29:20.281Z,7.53
2022-12-08T16:32:23.050Z,6.68
2022-12-08T16:35:24.882Z,7.60
2022-12-08T16:38:26.840Z,7.50
2022-12-08T16:41:47.183Z,6.68
2022-12-08T16:44:48.834Z,6.50
2022-12-08T16:48:01.019Z,6.57
2022-12-08T16:51:04.652Z,6.95
2022-12-08T16:54:06.442Z,6.95
2022-12-08T16:57:08.226Z,7.35
2022-12-08T17:00:13.979Z,7.13
2022-12-08T17:03:16.566Z,7.22
2022-12-08T17:06:18.799Z,6.88
2022-12-08T17:09:20.749Z,7.50
2022-12-08T17:12:22.456Z,7.47
2022-12-08T17:15:25.777Z,7.43
2022-12-08T17:18:27.544Z,6.80
2022-12-08T17:21:29.830Z,6.53
2022-12-08T17:24:31.545Z,7.80
2022-12-08T17:27:33.625Z,7.07
2022-12-08T17:30:35.240Z,6.57
2022-12-08T17:33:36.969Z,7.43
2022-12-08T17:36:38.648Z,7.60
2022-12-08T17:39:40.851Z,7.25
2022-12-08T17:42:42.949Z,7.25
2022-12-08T17:45:47.436Z,7.40
2022-12-08T17:48:49.380Z,7.00
2022-12-08T17:51:53.951Z,6.80
2022-12-08T17:54:55.722Z,7.38
2022-12-08T17:57:57.756Z,6.60
2022-12-08T18:00:59.726Z,6.80
2022-12-08T18:04:03.412Z,7.70
2022-12-08T18:07:05.572Z,7.00
2022-12-08T18:10:07.991Z,7.40
2022-12-08T18:13:10.362Z,8.15
2022-12-08T18:16:12.720Z,7.80
2022-12-08T18:19:15.448Z,7.13
2022-12-08T18:22:17.409Z,8.13
2022-12-08T18:25:19.408Z,7.53
2022-12-08T18:28:21.367Z,8.70
2022-12-08T18:31:24.329Z,7.45
2022-12-08T18:34:26.398Z,7.35
2022-12-08T18:37:28.427Z,7.32
2022-12-08T18:40:30.473Z,7.03
2022-12-08T18:43:32.213Z,7.22
2022-12-08T18:46:33.948Z,8.05
2022-12-08T18:49:36.454Z,8.23
2022-12-08T18:52:38.226Z,7.05
2022-12-08T18:55:40.058Z,7.80
2022-12-08T18:58:42.066Z,7.32
2022-12-08T19:01:43.886Z,7.35
2022-12-08T19:04:45.803Z,7.07
2022-12-08T19:07:47.602Z,6.70
2022-12-08T19:10:49.531Z,7.03
2022-12-08T19:13:52.790Z,7.22
2022-12-08T19:16:55.069Z,7.32
2022-12-08T19:19:57.681Z,7.88
2022-12-08T19:22:59.406Z,7.45
2022-12-08T19:26:02.570Z,8.13
2022-12-08T19:29:04.680Z,8.90
2022-12-08T19:32:06.424Z,9.57
2022-12-08T19:35:08.477Z,11.00
2022-12-08T19:38:10.550Z,10.80
2022-12-08T19:41:36.520Z,10.55
2022-12-08T19:44:53.086Z,10.45
2022-12-08T19:47:55.029Z,10.57
2022-12-08T19:50:57.110Z,10.88
2022-12-08T19:53:58.707Z,11.45
2022-12-08T19:57:00.334Z,10.95
2022-12-08T20:00:02.206Z,10.40
2022-12-08T20:03:15.560Z,10.63
2022-12-08T20:06:19.113Z,10.63
2022-12-08T20:09:21.260Z,10.50
2022-12-08T20:12:22.947Z,10.50
2022-12-08T20:15:24.942Z,10.40
2022-12-08T20:18:28.599Z,10.82
2022-12-08T20:21:30.555Z,11.20
2022-12-08T20:24:33.351Z,10.35
2022-12-08T20:27:36.140Z,9.63
2022-12-08T20:30:40.343Z,10.20
2022-12-08T20:33:42.090Z,10.77
2022-12-08T20:36:44.622Z,10.45
2022-12-08T20:39:46.196Z,10.73
2022-12-08T20:42:49.483Z,10.35
2022-12-08T20:45:51.669Z,11.50
2022-12-08T20:48:53.661Z,11.63
2022-12-08T20:51:55.408Z,11.07
2022-12-08T20:54:57.705Z,10.00
2022-12-08T20:57:59.707Z,12.20
2022-12-08T21:01:01.866Z,11.65
2022-12-08T21:04:03.975Z,11.20
2022-12-08T21:07:06.124Z,11.68
2022-12-08T21:10:08.824Z,12.77
2022-12-08T21:13:11.111Z,12.30
2022-12-08T21:16:15.057Z,11.13
2022-12-08T21:19:18.254Z,10.43
2022-12-08T21:22:21.141Z,11.00
2022-12-08T21:25:22.986Z,11.07
2022-12-08T21:28:25.077Z,10.90
2022-12-08T21:31:29.345Z,12.15
2022-12-08T21:34:31.915Z,11.48
2022-12-08T21:37:34.054Z,11.38
2022-12-08T21:40:35.779Z,12.10
2022-12-08T21:43:38.132Z,11.98
2022-12-08T21:46:40.153Z,11.68
2022-12-08T21:49:42.126Z,12.30
2022-12-08T21:52:46.481Z,12.43
2022-12-08T21:55:49.969Z,11.75
2022-12-08T21:58:51.974Z,12.45
2022-12-08T22:01:53.827Z,12.60
2022-12-08T22:04:55.674Z,10.73
2022-12-08T22:07:58.800Z,11.60
2022-12-08T22:11:01.167Z,13.20
2022-12-08T22:14:03.074Z,12.93
2022-12-08T22:17:05.012Z,13.77
2022-12-08T22:20:09.504Z,16.23
2022-12-08T22:23:12.185Z,19.95
2022-12-08T22:26:14.381Z,16.77
2022-12-08T22:29:16.757Z,17.00
2022-12-08T22:32:18.780Z,13.43
2022-12-08T22:35:20.771Z,11.75
2022-12-08T22:38:22.852Z,10.48
2022-12-08T22:41:25.005Z,11.25
2022-12-08T22:44:26.999Z,10.32
2022-12-08T22:47:28.999Z,11.75
2022-12-08T22:50:30.885Z,11.43
2022-12-08T22:53:33.393Z,12.15
2022-12-08T22:56:35.765Z,12.60
2022-12-08T22:59:40.917Z,12.10
2022-12-08T23:02:43.043Z,11.57
2022-12-08T23:05:45.079Z,12.48
2022-12-08T23:08:47.284Z,12.00
2022-12-08T23:11:49.286Z,11.95
2022-12-08T23:14:51.058Z,11.43
2022-12-08T23:17:53.120Z,10.55
2022-12-08T23:20:54.878Z,11.48
2022-12-08T23:23:56.685Z,11.73
2022-12-08T23:26:58.500Z,11.80
2022-12-08T23:30:00.375Z,11.85
2022-12-08T23:33:02.602Z,11.18
2022-12-08T23:36:04.655Z,11.43
2022-12-08T23:39:06.878Z,12.00
2022-12-08T23:42:08.837Z,11.25
2022-12-08T23:45:11.159Z,10.50
2022-12-08T23:48:13.168Z,11.35
2022-12-08T23:51:15.576Z,10.68
2022-12-08T23:54:17.453Z,11.25
2022-12-08T23:57:19.524Z,10.95
